EZY11AN LBSF-LROP
Flight info
| Callsign | EZY11AN |
|---|---|
| Flight time | 0h 39m |
| Altitude | 27000 |
| Route | GOL4S/09 GOL Q24 SOMOV DCT SORDU |
| Aircraft | B736/M-SDE2E3FGHIRWXY/LB1 |
Departure
| Time | 2026-05-04 16:36 |
|---|---|
| Airport | Sofia Airport (LBSF) |
Arrival
| Time | 2026-05-04 17:15 |
|---|---|
| Airport | Bucharest Henri Coandă International Airport (LROP) |
| Time | Latitude | Longitude | Altitude | Speed | Heading |
|---|---|---|---|---|---|
| 2026-05-04 16:11 | 42.69029 | 23.40537 | 1752 ft | 0 kts | 196° |
| 2026-05-04 16:28 | 42.69006 | 23.40527 | 1749 ft | 5 kts | 207° |
| 2026-05-04 16:28 | 42.69048 | 23.40253 | 1743 ft | 15 kts | 287° |
| 2026-05-04 16:29 | 42.69148 | 23.39737 | 1752 ft | 16 kts | 284° |
| 2026-05-04 16:30 | 42.69358 | 23.39567 | 1750 ft | 13 kts | 3° |
| 2026-05-04 16:31 | 42.69568 | 23.39585 | 1752 ft | 13 kts | 3° |
| 2026-05-04 16:31 | 42.69643 | 23.39592 | 1752 ft | 0 kts | 4° |
| 2026-05-04 16:34 | 42.69652 | 23.39593 | 1749 ft | 7 kts | 4° |
| 2026-05-04 16:35 | 42.69767 | 23.39731 | 1744 ft | 0 kts | 95° |
| 2026-05-04 16:35 | 42.69760 | 23.39845 | 1753 ft | 42 kts | 94° |
| 2026-05-04 16:36 | 42.69715 | 23.40638 | 1751 ft | 123 kts | 94° |
| 2026-05-04 16:36 | 42.69522 | 23.43620 | 2894 ft | 164 kts | 94° |
| 2026-05-04 16:37 | 42.69407 | 23.46481 | 5015 ft | 148 kts | 76° |
| 2026-05-04 16:37 | 42.69819 | 23.47781 | 5714 ft | 161 kts | 62° |
| 2026-05-04 16:37 | 42.70916 | 23.51151 | 6323 ft | 229 kts | 65° |
| 2026-05-04 16:38 | 42.72267 | 23.55467 | 7536 ft | 263 kts | 65° |
| 2026-05-04 16:39 | 42.74410 | 23.62390 | 10338 ft | 271 kts | 65° |
| 2026-05-04 16:39 | 42.76045 | 23.67673 | 11017 ft | 327 kts | 66° |
| 2026-05-04 16:40 | 42.77838 | 23.73513 | 12832 ft | 338 kts | 66° |
| 2026-05-04 16:40 | 42.79675 | 23.79504 | 14599 ft | 348 kts | 66° |
| 2026-05-04 16:41 | 42.81597 | 23.85611 | 16223 ft | 355 kts | 60° |
| 2026-05-04 16:41 | 42.86027 | 23.93901 | 18640 ft | 367 kts | 51° |
| 2026-05-04 16:42 | 42.90684 | 24.02379 | 20818 ft | 377 kts | 52° |
| 2026-05-04 16:43 | 42.93820 | 24.08199 | 22255 ft | 384 kts | 52° |
| 2026-05-04 16:43 | 42.97630 | 24.13258 | 23100 ft | 385 kts | 30° |
| 2026-05-04 16:43 | 42.99995 | 24.15013 | 23107 ft | 389 kts | 28° |
| 2026-05-04 16:44 | 43.09551 | 24.22094 | 24492 ft | 394 kts | 31° |
| 2026-05-04 16:45 | 43.14068 | 24.26426 | 25731 ft | 397 kts | 38° |
| 2026-05-04 16:46 | 43.20570 | 24.33367 | 27093 ft | 393 kts | 38° |
| 2026-05-04 16:46 | 43.24899 | 24.37905 | 27091 ft | 392 kts | 37° |
| 2026-05-04 16:47 | 43.29220 | 24.42391 | 27103 ft | 392 kts | 37° |
| 2026-05-04 16:47 | 43.33587 | 24.46918 | 27084 ft | 392 kts | 37° |
| 2026-05-04 16:48 | 43.40104 | 24.53688 | 26901 ft | 385 kts | 38° |
| 2026-05-04 16:48 | 43.42208 | 24.55877 | 26632 ft | 372 kts | 37° |
| 2026-05-04 16:49 | 43.46131 | 24.59966 | 26104 ft | 344 kts | 38° |
| 2026-05-04 16:49 | 43.49899 | 24.63900 | 25611 ft | 338 kts | 38° |
| 2026-05-04 16:50 | 43.53640 | 24.67814 | 25121 ft | 337 kts | 38° |
| 2026-05-04 16:50 | 43.57363 | 24.71714 | 24639 ft | 334 kts | 38° |
| 2026-05-04 16:51 | 43.61052 | 24.75584 | 24170 ft | 333 kts | 38° |
| 2026-05-04 16:51 | 43.62891 | 24.77520 | 23924 ft | 331 kts | 38° |
| 2026-05-04 16:51 | 43.66443 | 24.81473 | 23122 ft | 324 kts | 40° |
| 2026-05-04 16:52 | 43.69864 | 24.85361 | 22320 ft | 316 kts | 40° |
| 2026-05-04 16:52 | 43.71555 | 24.87281 | 21914 ft | 313 kts | 40° |
| 2026-05-04 16:53 | 43.74892 | 24.91065 | 21144 ft | 307 kts | 40° |
| 2026-05-04 16:53 | 43.79802 | 24.96627 | 19987 ft | 301 kts | 40° |
| 2026-05-04 16:54 | 43.81414 | 24.98454 | 19620 ft | 299 kts | 40° |
| 2026-05-04 16:55 | 43.87803 | 25.05707 | 18081 ft | 295 kts | 40° |
| 2026-05-04 16:55 | 43.90962 | 25.09300 | 17262 ft | 292 kts | 40° |
| 2026-05-04 16:56 | 43.94065 | 25.12835 | 16496 ft | 289 kts | 40° |
| 2026-05-04 16:56 | 43.98690 | 25.18112 | 15366 ft | 285 kts | 40° |
| 2026-05-04 16:57 | 44.00215 | 25.19853 | 14993 ft | 284 kts | 40° |
| 2026-05-04 16:57 | 44.03255 | 25.23331 | 14241 ft | 282 kts | 40° |
| 2026-05-04 16:58 | 44.07783 | 25.28518 | 13031 ft | 279 kts | 40° |
| 2026-05-04 16:58 | 44.09277 | 25.30232 | 12657 ft | 277 kts | 40° |
| 2026-05-04 16:59 | 44.12233 | 25.33627 | 11897 ft | 273 kts | 40° |
| 2026-05-04 17:00 | 44.18009 | 25.40273 | 10449 ft | 265 kts | 40° |
| 2026-05-04 17:00 | 44.22020 | 25.44898 | 9927 ft | 241 kts | 40° |
| 2026-05-04 17:01 | 44.24630 | 25.47915 | 9280 ft | 245 kts | 40° |
| 2026-05-04 17:01 | 44.27214 | 25.50903 | 8489 ft | 241 kts | 39° |
| 2026-05-04 17:02 | 44.29800 | 25.53897 | 7577 ft | 242 kts | 39° |
| 2026-05-04 17:02 | 44.32818 | 25.55654 | 6718 ft | 241 kts | 360° |
| 2026-05-04 17:03 | 44.34465 | 25.55495 | 6333 ft | 232 kts | 356° |
| 2026-05-04 17:03 | 44.36066 | 25.55300 | 5661 ft | 231 kts | 356° |
| 2026-05-04 17:03 | 44.39309 | 25.54960 | 4389 ft | 236 kts | 356° |
| 2026-05-04 17:04 | 44.42606 | 25.54666 | 4101 ft | 238 kts | 356° |
| 2026-05-04 17:04 | 44.45881 | 25.54394 | 3972 ft | 229 kts | 356° |
| 2026-05-04 17:05 | 44.48469 | 25.54186 | 3981 ft | 223 kts | 356° |
| 2026-05-04 17:05 | 44.51609 | 25.53943 | 3982 ft | 227 kts | 356° |
| 2026-05-04 17:06 | 44.55276 | 25.53662 | 3982 ft | 226 kts | 356° |
| 2026-05-04 17:06 | 44.56341 | 25.53579 | 3983 ft | 226 kts | 356° |
| 2026-05-04 17:07 | 44.59323 | 25.54202 | 3978 ft | 219 kts | 41° |
| 2026-05-04 17:07 | 44.59908 | 25.55349 | 3976 ft | 213 kts | 65° |
| 2026-05-04 17:07 | 44.60210 | 25.58026 | 3979 ft | 214 kts | 95° |
| 2026-05-04 17:07 | 44.59873 | 25.60058 | 3988 ft | 214 kts | 106° |
| 2026-05-04 17:08 | 44.59407 | 25.62050 | 3983 ft | 215 kts | 108° |
| 2026-05-04 17:08 | 44.58454 | 25.66021 | 3982 ft | 214 kts | 107° |
| 2026-05-04 17:08 | 44.57985 | 25.67993 | 3924 ft | 210 kts | 107° |
| 2026-05-04 17:09 | 44.57535 | 25.69899 | 3572 ft | 207 kts | 107° |
| 2026-05-04 17:09 | 44.57086 | 25.71818 | 3020 ft | 208 kts | 108° |
| 2026-05-04 17:09 | 44.56639 | 25.73733 | 2596 ft | 206 kts | 108° |
| 2026-05-04 17:10 | 44.55739 | 25.77597 | 2495 ft | 209 kts | 108° |
| 2026-05-04 17:10 | 44.54692 | 25.83242 | 2497 ft | 195 kts | 87° |
| 2026-05-04 17:11 | 44.54783 | 25.85159 | 2507 ft | 198 kts | 85° |
| 2026-05-04 17:11 | 44.54907 | 25.87096 | 2498 ft | 200 kts | 84° |
| 2026-05-04 17:11 | 44.55221 | 25.90945 | 2378 ft | 195 kts | 83° |
| 2026-05-04 17:12 | 44.55358 | 25.92770 | 2165 ft | 182 kts | 83° |
| 2026-05-04 17:12 | 44.55597 | 25.96014 | 1746 ft | 153 kts | 84° |
| 2026-05-04 17:13 | 44.55896 | 26.00137 | 1239 ft | 138 kts | 84° |
| 2026-05-04 17:14 | 44.56200 | 26.04145 | 774 ft | 136 kts | 85° |
| 2026-05-04 17:14 | 44.56299 | 26.05449 | 635 ft | 134 kts | 85° |
| 2026-05-04 17:14 | 44.56492 | 26.08013 | 352 ft | 130 kts | 84° |
| 2026-05-04 17:15 | 44.56576 | 26.09166 | 319 ft | 103 kts | 84° |
| 2026-05-04 17:15 | 44.56677 | 26.10488 | 320 ft | 45 kts | 84° |
| 2026-05-04 17:16 | 44.56849 | 26.10753 | 320 ft | 19 kts | 355° |
| 2026-05-04 17:16 | 44.57022 | 26.10668 | 321 ft | 16 kts | 302° |
| 2026-05-04 17:17 | 44.57066 | 26.10496 | 321 ft | 21 kts | 270° |
| 2026-05-04 17:17 | 44.57014 | 26.09814 | 321 ft | 22 kts | 264° |
| 2026-05-04 17:18 | 44.56997 | 26.09600 | 321 ft | 22 kts | 264° |
| 2026-05-04 17:18 | 44.56966 | 26.09190 | 321 ft | 21 kts | 264° |
| 2026-05-04 17:19 | 44.56941 | 26.08874 | 321 ft | 10 kts | 264° |
| 2026-05-04 17:19 | 44.56903 | 26.08806 | 321 ft | 5 kts | 172° |
| 2026-05-04 17:20 | 44.56887 | 26.08809 | 320 ft | 0 kts | 173° |